Time;durP1;ratioP1;P1;durP2;ratioP2;P2;SDS_P1;SDS_P2;PMS_P1;PMS_P2;Temp;Humidity;BMP_temperature;BMP_pressure;BME280_temperature;BME280_humidity;BME280_pressure;Samples;Min_cycle;Max_cycle;Signal;HPM_P1;HPM_P2
2022/08/20 00:02:18;;;;;;;0.35;0.35;;;24.00;60.40;;;;;;5047649;28;21105;-40
2022/08/20 00:04:44;;;;;;;0.40;0.40;;;24.00;60.30;;;;;;5049030;28;20032;-38
2022/08/20 00:07:10;;;;;;;0.93;0.50;;;24.00;60.40;;;;;;5048804;28;20017;-39
2022/08/20 00:09:35;;;;;;;0.45;0.40;;;24.00;60.40;;;;;;5047206;28;20033;-41
2022/08/20 00:12:02;;;;;;;0.75;0.60;;;23.90;60.40;;;;;;5050100;28;20487;-41
2022/08/20 00:14:27;;;;;;;0.75;0.45;;;23.90;60.30;;;;;;5047161;28;20041;-40
2022/08/20 00:16:53;;;;;;;0.45;0.45;;;23.90;60.40;;;;;;5048566;28;20024;-38
2022/08/20 00:19:19;;;;;;;0.80;0.40;;;24.00;60.50;;;;;;5048962;28;20033;-40
2022/08/20 00:21:44;;;;;;;0.80;0.63;;;23.90;60.40;;;;;;5048156;28;20029;-39
2022/08/20 00:24:10;;;;;;;0.30;0.20;;;24.00;60.50;;;;;;5047456;28;20017;-39
2022/08/20 00:26:35;;;;;;;1.15;0.50;;;24.00;60.40;;;;;;5046155;28;20029;-39
2022/08/20 00:29:01;;;;;;;0.65;0.40;;;23.90;60.30;;;;;;5046605;28;20055;-43
2022/08/20 00:31:27;;;;;;;0.90;0.50;;;23.90;60.30;;;;;;5047395;28;20369;-43
2022/08/20 00:33:52;;;;;;;0.60;0.60;;;23.90;60.40;;;;;;5045615;28;20036;-43
2022/08/20 00:36:18;;;;;;;0.77;0.40;;;23.90;60.50;;;;;;5046136;28;20068;-43
2022/08/20 00:38:44;;;;;;;0.82;0.35;;;23.90;60.40;;;;;;5045680;28;20426;-43
2022/08/20 00:41:12;;;;;;;0.60;0.40;;;23.90;60.40;;;;;;5046765;28;20092;-43
2022/08/20 00:43:52;;;;;;;2.95;0.55;;;23.90;60.50;;;;;;5042434;28;20029;-43
2022/08/20 00:46:26;;;;;;;0.63;0.50;;;23.90;60.40;;;;;;5045336;28;20098;-43
2022/08/20 00:48:53;;;;;;;0.65;0.32;;;23.90;60.40;;;;;;5046170;28;20499;-43
2022/08/20 00:51:26;;;;;;;0.80;0.40;;;23.90;60.50;;;;;;5046163;28;20021;-43
2022/08/20 00:54:00;;;;;;;0.60;0.60;;;23.90;60.50;;;;;;5045346;28;20488;-43
2022/08/20 00:56:26;;;;;;;0.50;0.30;;;23.90;60.50;;;;;;5027711;28;20021;-43
2022/08/20 00:58:52;;;;;;;0.90;0.60;;;23.90;60.60;;;;;;5029580;28;20108;-43
2022/08/20 01:01:18;;;;;;;0.35;0.30;;;23.90;60.40;;;;;;5046458;28;20103;-43
2022/08/20 01:03:43;;;;;;;0.52;0.50;;;23.90;60.40;;;;;;5046475;28;20469;-43
2022/08/20 01:06:10;;;;;;;1.42;0.50;;;23.90;60.40;;;;;;5044864;28;20037;-44
2022/08/20 01:08:36;;;;;;;0.57;0.50;;;23.90;60.50;;;;;;5046368;28;20025;-43
2022/08/20 01:11:15;;;;;;;0.68;0.50;;;23.90;60.50;;;;;;5027251;28;20510;-43
2022/08/20 01:13:40;;;;;;;0.60;0.50;;;23.90;60.40;;;;;;5045865;28;20102;-43
2022/08/20 01:16:12;;;;;;;0.57;0.40;;;23.90;60.50;;;;;;5030557;28;20021;-43
2022/08/20 01:18:38;;;;;;;0.80;0.50;;;23.90;60.60;;;;;;5012192;28;20029;-43
2022/08/20 01:21:04;;;;;;;1.20;0.40;;;23.80;60.50;;;;;;5014232;28;20811;-43
2022/08/20 01:23:58;;;;;;;0.65;0.32;;;23.90;60.50;;;;;;5012867;28;20112;-43
2022/08/20 01:26:35;;;;;;;0.50;0.40;;;23.90;60.60;;;;;;5046703;28;20056;-43
2022/08/20 01:29:09;;;;;;;1.02;0.50;;;23.90;60.50;;;;;;5010776;28;20037;-43
2022/08/20 01:31:36;;;;;;;0.52;0.40;;;23.90;60.50;;;;;;5027050;28;20395;-43
2022/08/20 01:34:03;;;;;;;0.88;0.40;;;23.90;60.50;;;;;;5045223;28;20029;-43
2022/08/20 01:36:50;;;;;;;0.60;0.52;;;23.80;60.50;;;;;;5044096;28;20021;-43
2022/08/20 01:39:19;;;;;;;0.40;0.20;;;23.80;60.50;;;;;;5042936;28;20637;-43
2022/08/20 01:42:18;;;;;;;0.55;0.40;;;23.80;60.50;;;;;;5047128;28;20448;-43
2022/08/20 01:44:44;;;;;;;0.88;0.30;;;23.80;60.50;;;;;;4996874;28;20392;-43
2022/08/20 01:47:30;;;;;;;0.30;0.30;;;23.80;60.50;;;;;;5045963;28;20479;-45
2022/08/20 01:50:07;;;;;;;0.68;0.45;;;23.90;60.50;;;;;;5043272;28;20500;-43
2022/08/20 01:53:04;;;;;;;0.47;0.40;;;23.90;60.50;;;;;;5029769;28;20095;-46
2022/08/20 01:55:30;;;;;;;0.35;0.30;;;23.80;60.50;;;;;;5001892;28;20049;-43
2022/08/20 01:57:56;;;;;;;1.05;0.35;;;23.80;60.40;;;;;;5029973;28;20411;-43
2022/08/20 02:00:22;;;;;;;0.77;0.38;;;23.80;60.50;;;;;;5045360;28;20109;-43
2022/08/20 02:02:48;;;;;;;0.50;0.50;;;23.80;60.50;;;;;;5046389;28;20071;-43
2022/08/20 02:05:13;;;;;;;0.68;0.38;;;23.80;60.50;;;;;;5012824;28;20557;-43
2022/08/20 02:07:39;;;;;;;0.50;0.30;;;23.80;60.50;;;;;;5043933;28;20033;-43
2022/08/20 02:10:09;;;;;;;0.32;0.30;;;23.80;60.50;;;;;;5046482;28;20104;-43
2022/08/20 02:12:34;;;;;;;0.73;0.43;;;23.80;60.50;;;;;;5047216;28;20036;-43
2022/08/20 02:15:00;;;;;;;0.75;0.40;;;23.80;60.50;;;;;;5045074;28;20462;-43
2022/08/20 02:17:26;;;;;;;0.40;0.25;;;23.80;60.50;;;;;;5046435;28;20039;-43
2022/08/20 02:19:52;;;;;;;0.73;0.47;;;23.80;60.50;;;;;;5046401;28;20025;-43
2022/08/20 02:22:25;;;;;;;0.85;0.40;;;23.80;60.50;;;;;;5044470;28;20545;-43
2022/08/20 02:24:50;;;;;;;0.82;0.45;;;23.80;60.40;;;;;;5027523;28;20078;-43
2022/08/20 02:27:17;;;;;;;0.77;0.50;;;23.80;60.40;;;;;;5012598;28;20033;-43
2022/08/20 02:29:43;;;;;;;0.60;0.40;;;23.80;60.50;;;;;;5043972;28;20045;-43
2022/08/20 02:32:09;;;;;;;1.20;0.60;;;23.80;60.40;;;;;;5045146;28;20064;-43
2022/08/20 02:34:34;;;;;;;0.88;0.65;;;23.80;60.40;;;;;;5043753;28;20626;-43
2022/08/20 02:37:01;;;;;;;1.30;0.40;;;23.80;60.40;;;;;;5045038;28;20503;-43
2022/08/20 02:39:26;;;;;;;0.45;0.32;;;23.80;60.50;;;;;;5044794;28;20037;-43
2022/08/20 02:41:52;;;;;;;0.73;0.40;;;23.80;61.30;;;;;;5043372;28;20090;-43
2022/08/20 02:44:19;;;;;;;0.93;0.40;;;23.80;60.40;;;;;;5045311;28;20032;-43
2022/08/20 02:46:45;;;;;;;0.63;0.30;;;23.80;60.40;;;;;;5045868;28;20052;-43
2022/08/20 02:49:11;;;;;;;0.90;0.32;;;23.80;60.40;;;;;;5046719;28;20037;-43
2022/08/20 02:51:36;;;;;;;0.63;0.30;;;23.80;60.30;;;;;;5048994;28;20021;-43
2022/08/20 02:54:02;;;;;;;0.32;0.30;;;23.80;60.30;;;;;;5049265;28;20392;-45
2022/08/20 02:56:27;;;;;;;1.85;0.60;;;23.80;60.50;;;;;;5048824;28;20104;-42
2022/08/20 02:58:53;;;;;;;0.68;0.52;;;23.80;61.30;;;;;;5048742;28;20506;-43
2022/08/20 03:01:19;;;;;;;1.63;0.50;;;23.80;60.30;;;;;;5049358;28;20036;-43
2022/08/20 03:03:44;;;;;;;0.55;0.35;;;23.80;60.40;;;;;;5046937;28;20032;-44
2022/08/20 03:06:10;;;;;;;0.40;0.40;;;23.80;60.40;;;;;;5050090;28;20028;-43
2022/08/20 03:08:36;;;;;;;0.95;0.40;;;23.80;60.20;;;;;;5048977;28;20023;-43
2022/08/20 03:11:02;;;;;;;0.88;0.50;;;23.70;60.20;;;;;;5048675;28;20033;-43
2022/08/20 03:13:28;;;;;;;1.30;0.50;;;23.70;60.30;;;;;;5049961;28;20112;-43
2022/08/20 03:15:55;;;;;;;0.88;0.40;;;23.80;60.30;;;;;;5047896;28;20021;-43
2022/08/20 03:18:22;;;;;;;0.82;0.40;;;23.70;60.10;;;;;;5050632;28;20055;-43
2022/08/20 03:20:48;;;;;;;0.52;0.30;;;23.70;60.10;;;;;;5049403;28;20033;-43
2022/08/20 03:23:14;;;;;;;0.88;0.45;;;23.70;60.20;;;;;;5048293;28;20102;-43
2022/08/20 03:25:40;;;;;;;0.88;0.50;;;23.70;61.00;;;;;;5047065;28;20025;-43
2022/08/20 03:28:06;;;;;;;1.48;0.47;;;23.70;60.30;;;;;;5047998;28;20052;-43
2022/08/20 03:30:32;;;;;;;2.20;0.70;;;23.70;60.20;;;;;;5048040;28;20049;-43
2022/08/20 03:32:57;;;;;;;0.93;0.40;;;23.70;60.90;;;;;;5048205;28;20022;-43
2022/08/20 03:35:24;;;;;;;0.77;0.50;;;23.70;60.20;;;;;;5049047;28;20025;-43
2022/08/20 03:37:50;;;;;;;0.70;0.40;;;23.70;60.10;;;;;;5030280;28;20033;-43
2022/08/20 03:40:19;;;;;;;0.40;0.35;;;23.70;60.30;;;;;;5049405;28;20415;-43
2022/08/20 03:42:45;;;;;;;0.60;0.40;;;23.70;60.30;;;;;;5047145;28;20052;-43
2022/08/20 03:45:11;;;;;;;0.88;0.57;;;23.70;61.00;;;;;;5049029;28;20033;-43
2022/08/20 03:47:37;;;;;;;0.65;0.40;;;23.70;60.10;;;;;;5047321;28;20033;-43
2022/08/20 03:50:04;;;;;;;0.40;0.40;;;23.70;60.20;;;;;;5049336;28;20029;-44
2022/08/20 03:52:30;;;;;;;0.38;0.30;;;23.70;60.10;;;;;;5049276;28;20029;-43
2022/08/20 03:54:55;;;;;;;0.88;0.63;;;23.70;60.20;;;;;;5048710;28;20025;-43
2022/08/20 03:57:21;;;;;;;0.70;0.30;;;23.70;60.20;;;;;;5049128;28;20498;-43
2022/08/20 03:59:47;;;;;;;0.70;0.47;;;23.70;60.10;;;;;;5048683;28;20076;-43
2022/08/20 04:02:12;;;;;;;0.73;0.32;;;23.70;60.10;;;;;;5047704;28;20443;-43
2022/08/20 04:04:39;;;;;;;0.60;0.40;;;23.70;60.00;;;;;;5047822;28;20021;-43
2022/08/20 04:07:12;;;;;;;1.60;0.60;;;23.70;60.10;;;;;;5046169;28;20454;-44
2022/08/20 04:09:38;;;;;;;1.10;0.50;;;23.70;60.10;;;;;;5045437;28;20021;-43
2022/08/20 04:12:05;;;;;;;0.50;0.50;;;23.70;60.00;;;;;;5047602;28;20454;-43
2022/08/20 04:14:30;;;;;;;0.40;0.30;;;23.60;60.00;;;;;;5048130;28;20028;-43
2022/08/20 04:16:56;;;;;;;0.70;0.57;;;23.60;60.00;;;;;;5048933;28;20032;-43
2022/08/20 04:19:22;;;;;;;0.60;0.40;;;23.60;60.00;;;;;;5047571;28;20032;-43
2022/08/20 04:21:47;;;;;;;0.52;0.40;;;23.70;60.10;;;;;;5047454;28;20407;-43
2022/08/20 04:24:14;;;;;;;0.40;0.30;;;23.60;60.10;;;;;;5045996;28;20025;-43
2022/08/20 04:26:40;;;;;;;0.55;0.32;;;23.60;60.10;;;;;;5046432;28;20072;-43
2022/08/20 04:29:06;;;;;;;0.63;0.47;;;23.60;59.90;;;;;;5030466;28;20029;-43
2022/08/20 04:31:32;;;;;;;0.60;0.20;;;23.60;60.00;;;;;;5047295;28;20025;-43
2022/08/20 04:33:59;;;;;;;1.05;0.40;;;23.60;60.00;;;;;;5045846;28;20040;-43
2022/08/20 04:36:25;;;;;;;0.60;0.47;;;23.70;59.90;;;;;;5046853;28;20518;-43
2022/08/20 04:38:50;;;;;;;0.47;0.40;;;23.60;60.00;;;;;;5046771;28;20562;-43
2022/08/20 04:41:17;;;;;;;0.65;0.63;;;23.60;59.90;;;;;;5046456;28;20045;-43
2022/08/20 04:43:42;;;;;;;0.52;0.38;;;23.60;59.90;;;;;;5045986;28;20029;-43
2022/08/20 04:46:09;;;;;;;0.80;0.40;;;23.60;59.90;;;;;;5046890;28;20500;-43
2022/08/20 04:48:38;;;;;;;0.40;0.40;;;23.60;59.80;;;;;;5047208;28;20083;-43
2022/08/20 04:51:04;;;;;;;0.38;0.30;;;23.60;59.80;;;;;;5031904;28;20032;-43
2022/08/20 04:53:29;;;;;;;0.30;0.30;;;23.50;60.00;;;;;;5044972;28;20563;-43
2022/08/20 04:55:56;;;;;;;0.50;0.50;;;23.60;60.00;;;;;;5046834;28;20092;-43
2022/08/20 04:58:26;;;;;;;1.85;0.50;;;23.60;59.90;;;;;;5030701;28;20166;-42
2022/08/20 05:00:56;;;;;;;0.40;0.30;;;23.60;59.90;;;;;;5047948;28;20123;-43
2022/08/20 05:03:21;;;;;;;0.32;0.30;;;23.50;59.80;;;;;;5045542;28;20029;-43
2022/08/20 05:05:47;;;;;;;0.80;0.40;;;23.60;60.00;;;;;;5047977;28;20036;-43
2022/08/20 05:08:13;;;;;;;0.90;0.43;;;23.60;59.90;;;;;;5047958;28;20495;-47
2022/08/20 05:10:39;;;;;;;1.15;0.52;;;23.50;59.90;;;;;;5046425;28;20111;-43
2022/08/20 05:13:05;;;;;;;0.50;0.47;;;23.50;59.80;;;;;;5045870;28;20166;-43
2022/08/20 05:15:31;;;;;;;0.45;0.30;;;23.60;60.00;;;;;;5044878;28;20025;-43
2022/08/20 05:18:02;;;;;;;0.57;0.30;;;23.50;59.80;;;;;;5046286;28;20495;-46
2022/08/20 05:20:30;;;;;;;0.60;0.40;;;23.50;60.00;;;;;;5030392;28;20047;-43
2022/08/20 05:22:56;;;;;;;0.82;0.30;;;23.50;60.00;;;;;;5047008;28;20086;-43
2022/08/20 05:25:22;;;;;;;0.40;0.40;;;23.50;59.80;;;;;;5046733;28;20028;-43
2022/08/20 05:27:47;;;;;;;0.60;0.32;;;23.50;60.00;;;;;;5044176;28;20051;-43
2022/08/20 05:30:13;;;;;;;0.68;0.50;;;23.50;59.90;;;;;;5047186;28;20025;-43
2022/08/20 05:32:38;;;;;;;0.60;0.40;;;23.50;59.90;;;;;;5045802;28;20526;-43
2022/08/20 05:35:06;;;;;;;0.63;0.50;;;23.50;59.90;;;;;;5047227;28;20025;-43
2022/08/20 05:37:34;;;;;;;0.63;0.40;;;23.50;60.00;;;;;;5029681;28;20467;-43
2022/08/20 05:39:59;;;;;;;0.68;0.50;;;23.50;59.90;;;;;;5046971;28;20585;-45
2022/08/20 05:42:26;;;;;;;0.70;0.50;;;23.50;60.00;;;;;;5046726;28;20021;-43
2022/08/20 05:44:51;;;;;;;0.70;0.30;;;23.50;60.00;;;;;;5043919;28;20033;-43
2022/08/20 05:47:17;;;;;;;0.93;0.60;;;23.50;59.90;;;;;;5047171;28;20021;-43
2022/08/20 05:49:45;;;;;;;0.63;0.40;;;23.50;59.90;;;;;;5046556;28;20032;-43
2022/08/20 05:52:10;;;;;;;0.55;0.40;;;23.50;60.00;;;;;;5044616;28;20033;-43
2022/08/20 05:54:36;;;;;;;0.70;0.40;;;23.50;60.80;;;;;;5046613;28;20071;-43
2022/08/20 05:57:03;;;;;;;0.47;0.30;;;23.50;60.00;;;;;;5046479;28;20124;-43
2022/08/20 05:59:28;;;;;;;0.70;0.65;;;23.50;59.90;;;;;;5044063;28;20029;-43
2022/08/20 06:01:54;;;;;;;0.50;0.30;;;23.50;60.10;;;;;;5047238;28;20526;-43
2022/08/20 06:04:26;;;;;;;0.32;0.28;;;23.50;60.00;;;;;;5045120;28;20090;-43
2022/08/20 06:07:04;;;;;;;0.75;0.40;;;23.50;59.90;;;;;;5043667;28;20028;-43
2022/08/20 06:09:30;;;;;;;0.68;0.35;;;23.50;60.00;;;;;;5043934;28;20033;-44
2022/08/20 06:11:58;;;;;;;0.68;0.40;;;23.50;60.10;;;;;;5043516;28;20546;-43
2022/08/20 06:14:24;;;;;;;0.43;0.30;;;23.50;60.10;;;;;;5045225;28;20025;-44
2022/08/20 06:16:50;;;;;;;0.70;0.50;;;23.50;60.00;;;;;;5044344;28;20344;-43
2022/08/20 06:19:15;;;;;;;0.90;0.30;;;23.50;60.10;;;;;;5045703;28;20092;-43
2022/08/20 06:21:41;;;;;;;0.50;0.40;;;23.50;60.20;;;;;;5044261;28;20037;-43
2022/08/20 06:24:07;;;;;;;0.65;0.57;;;23.50;60.10;;;;;;5048206;28;20015;-43
2022/08/20 06:26:33;;;;;;;0.88;0.60;;;23.50;60.10;;;;;;5049654;28;20055;-43
2022/08/20 06:29:00;;;;;;;0.30;0.30;;;23.50;60.20;;;;;;5048224;28;20481;-43
2022/08/20 06:31:26;;;;;;;0.45;0.40;;;23.50;60.20;;;;;;5047407;28;20048;-45
2022/08/20 06:33:51;;;;;;;0.57;0.40;;;23.50;60.10;;;;;;5048700;28;20033;-43
2022/08/20 06:36:17;;;;;;;0.32;0.32;;;23.50;60.20;;;;;;5049185;28;20036;-43
2022/08/20 06:38:44;;;;;;;0.30;0.30;;;23.50;60.10;;;;;;5048135;28;20118;-43
2022/08/20 06:41:10;;;;;;;0.47;0.40;;;23.50;60.20;;;;;;5050668;28;20020;-43
2022/08/20 06:43:36;;;;;;;0.70;0.40;;;23.50;60.20;;;;;;5046548;28;20025;-42
2022/08/20 06:46:01;;;;;;;0.32;0.20;;;23.50;60.30;;;;;;5046255;28;20025;-43
2022/08/20 06:48:27;;;;;;;0.20;0.20;;;23.50;60.40;;;;;;5048610;28;20017;-43
2022/08/20 06:50:52;;;;;;;0.68;0.40;;;23.50;60.30;;;;;;5048921;28;20031;-43
2022/08/20 06:53:19;;;;;;;1.13;0.40;;;23.50;60.30;;;;;;5050236;28;20021;-43
2022/08/20 06:55:47;;;;;;;0.68;0.50;;;23.50;61.20;;;;;;5049083;28;20052;-43
2022/08/20 06:58:13;;;;;;;0.40;0.22;;;23.50;61.10;;;;;;5048752;28;20442;-43
2022/08/20 07:00:41;;;;;;;0.82;0.50;;;23.50;60.30;;;;;;5046479;28;20132;-43
2022/08/20 07:03:06;;;;;;;0.57;0.32;;;23.50;60.30;;;;;;5047188;28;20029;-45
2022/08/20 07:05:34;;;;;;;0.47;0.32;;;23.50;60.30;;;;;;5049732;28;20032;-43
2022/08/20 07:08:00;;;;;;;0.50;0.30;;;23.50;60.30;;;;;;5047477;28;20028;-43
2022/08/20 07:10:25;;;;;;;0.55;0.30;;;23.50;60.20;;;;;;5047763;28;20021;-43
2022/08/20 07:12:51;;;;;;;0.55;0.20;;;23.60;60.20;;;;;;5048224;28;20400;-43
2022/08/20 07:15:18;;;;;;;1.67;0.32;;;23.60;60.10;;;;;;5050470;28;20459;-43
2022/08/20 07:17:49;;;;;;;0.47;0.30;;;23.60;60.10;;;;;;5049618;28;20099;-43
2022/08/20 07:20:14;;;;;;;0.82;0.30;;;23.60;60.00;;;;;;5048984;28;20013;-43
2022/08/20 07:22:41;;;;;;;0.55;0.40;;;23.80;59.70;;;;;;5048720;28;20032;-43
2022/08/20 07:25:08;;;;;;;0.20;0.20;;;23.90;59.40;;;;;;5046309;28;20022;-43
2022/08/20 07:27:33;;;;;;;0.68;0.40;;;24.00;59.10;;;;;;5047745;28;20049;-46
2022/08/20 07:32:43;;;;;;;0.40;0.30;;;24.00;59.10;;;;;;5049076;28;20031;-43
2022/08/20 07:35:10;;;;;;;0.60;0.50;;;23.90;59.20;;;;;;5047622;28;20037;-43
2022/08/20 07:37:40;;;;;;;0.25;0.22;;;23.90;59.30;;;;;;5031750;28;20079;-43
2022/08/20 07:40:08;;;;;;;1.42;0.55;;;23.80;59.40;;;;;;5044831;28;20098;-43
2022/08/20 07:42:33;;;;;;;0.77;0.50;;;23.80;59.50;;;;;;5030127;28;20033;-43
2022/08/20 07:44:59;;;;;;;0.45;0.45;;;23.70;59.60;;;;;;5046334;28;20021;-43
2022/08/20 07:47:24;;;;;;;0.93;0.43;;;23.70;59.70;;;;;;5048601;28;20052;-43
2022/08/20 07:49:50;;;;;;;1.05;0.40;;;23.70;59.80;;;;;;5046795;28;20025;-43
2022/08/20 07:52:16;;;;;;;0.60;0.50;;;23.60;59.80;;;;;;5047045;28;20087;-43
2022/08/20 07:54:42;;;;;;;0.55;0.55;;;23.70;60.70;;;;;;5047305;28;20036;-44
2022/08/20 07:57:10;;;;;;;1.13;0.50;;;23.70;59.90;;;;;;5050264;28;20025;-43
2022/08/20 07:59:36;;;;;;;0.70;0.40;;;23.70;60.00;;;;;;5045929;28;20099;-43
2022/08/20 08:02:02;;;;;;;0.80;0.38;;;23.70;60.00;;;;;;5047240;28;20087;-43
2022/08/20 08:04:27;;;;;;;1.15;0.30;;;23.70;60.00;;;;;;5049771;28;20473;-43
2022/08/20 08:06:54;;;;;;;0.60;0.47;;;23.70;60.10;;;;;;5046100;28;20330;-43
2022/08/20 08:09:20;;;;;;;0.68;0.60;;;23.70;60.00;;;;;;5016285;28;20055;-43
2022/08/20 08:11:48;;;;;;;0.70;0.40;;;23.60;60.00;;;;;;5046684;28;20061;-44
2022/08/20 08:14:20;;;;;;;0.57;0.57;;;23.70;60.00;;;;;;5015582;28;20112;-43
2022/08/20 08:16:45;;;;;;;0.45;0.38;;;23.70;60.10;;;;;;5032671;28;20037;-43
2022/08/20 08:19:13;;;;;;;0.43;0.40;;;23.60;60.10;;;;;;5030778;28;20091;-43
2022/08/20 08:21:38;;;;;;;0.57;0.40;;;23.70;60.10;;;;;;5043845;28;20128;-43
2022/08/20 08:24:04;;;;;;;0.90;0.50;;;23.70;61.00;;;;;;5031948;28;20111;-43
2022/08/20 08:26:29;;;;;;;0.70;0.43;;;23.70;60.20;;;;;;5046267;28;20032;-43
2022/08/20 08:28:56;;;;;;;1.23;0.40;;;23.70;60.30;;;;;;5048664;28;20041;-43
2022/08/20 08:31:24;;;;;;;0.50;0.40;;;23.70;60.20;;;;;;5046815;28;20025;-43
2022/08/20 08:33:49;;;;;;;0.50;0.40;;;23.70;60.30;;;;;;5048518;28;20060;-43
2022/08/20 08:36:15;;;;;;;0.55;0.55;;;23.70;60.20;;;;;;5048379;28;20496;-44
2022/08/20 08:38:43;;;;;;;0.55;0.40;;;23.70;60.20;;;;;;5045053;28;20041;-43
2022/08/20 08:41:19;;;;;;;1.00;0.45;;;23.70;60.20;;;;;;5047060;28;20025;-43
2022/08/20 08:43:47;;;;;;;0.55;0.40;;;23.70;60.20;;;;;;5046131;28;20028;-43
2022/08/20 08:46:13;;;;;;;1.23;0.50;;;23.70;60.20;;;;;;5029730;28;20069;-43
2022/08/20 08:48:46;;;;;;;0.60;0.40;;;23.70;60.20;;;;;;5014637;28;20025;-43
2022/08/20 08:51:16;;;;;;;0.93;0.57;;;23.70;60.20;;;;;;5047356;28;20551;-44
2022/08/20 08:53:52;;;;;;;0.50;0.35;;;23.70;60.20;;;;;;5013524;28;20037;-43
2022/08/20 08:56:17;;;;;;;0.35;0.32;;;23.70;60.20;;;;;;5031028;28;20017;-43
2022/08/20 08:58:43;;;;;;;0.50;0.40;;;23.70;61.00;;;;;;5030966;28;20515;-43
2022/08/20 09:01:15;;;;;;;0.70;0.50;;;23.70;60.20;;;;;;5047088;28;20025;-43
2022/08/20 09:03:44;;;;;;;0.75;0.40;;;23.70;60.20;;;;;;5043876;28;20445;-43
2022/08/20 09:06:15;;;;;;;0.75;0.40;;;23.70;60.20;;;;;;5010280;28;20561;-44
2022/08/20 09:08:43;;;;;;;0.68;0.40;;;23.80;60.10;;;;;;5012862;28;20419;-45
2022/08/20 09:11:09;;;;;;;1.05;0.50;;;23.70;60.10;;;;;;5045085;28;20395;-43
2022/08/20 09:13:34;;;;;;;1.33;0.52;;;23.70;60.00;;;;;;5044926;28;20039;-44
2022/08/20 09:16:00;;;;;;;0.73;0.50;;;23.70;60.00;;;;;;5046366;28;20025;-43
2022/08/20 09:18:26;;;;;;;0.52;0.40;;;23.80;60.00;;;;;;5048255;28;20025;-43
2022/08/20 09:20:51;;;;;;;0.68;0.40;;;23.80;60.10;;;;;;5046873;28;20021;-43
2022/08/20 09:23:17;;;;;;;0.88;0.55;;;23.70;60.00;;;;;;5047616;28;20108;-43
2022/08/20 09:25:42;;;;;;;0.68;0.57;;;23.70;60.00;;;;;;5045936;28;20104;-43
2022/08/20 09:28:08;;;;;;;0.30;0.20;;;23.70;60.00;;;;;;5043449;28;20392;-43
2022/08/20 09:30:34;;;;;;;0.60;0.50;;;23.70;60.00;;;;;;5047935;28;20032;-43
2022/08/20 09:32:59;;;;;;;0.65;0.40;;;23.70;60.00;;;;;;5046272;28;20029;-43
2022/08/20 09:35:26;;;;;;;0.60;0.20;;;23.70;60.00;;;;;;5047462;28;20111;-43
2022/08/20 09:37:52;;;;;;;0.60;0.40;;;23.70;60.00;;;;;;5045293;28;20029;-43
2022/08/20 09:40:17;;;;;;;0.52;0.32;;;23.70;60.00;;;;;;5046665;28;20037;-44
2022/08/20 09:42:43;;;;;;;0.63;0.30;;;23.70;60.00;;;;;;5046847;28;20053;-45
2022/08/20 09:45:10;;;;;;;1.25;0.80;;;23.70;60.00;;;;;;5045850;28;20518;-43
2022/08/20 09:47:35;;;;;;;0.40;0.30;;;23.70;60.00;;;;;;5029733;28;20013;-43
2022/08/20 09:50:01;;;;;;;0.65;0.40;;;23.70;60.00;;;;;;5044312;28;20024;-43
2022/08/20 09:52:46;;;;;;;0.70;0.50;;;23.70;60.00;;;;;;5044720;28;20505;-43
2022/08/20 09:55:15;;;;;;;0.30;0.30;;;23.70;59.80;;;;;;5028589;28;20036;-43
2022/08/20 09:57:40;;;;;;;0.52;0.40;;;23.70;59.90;;;;;;5044393;28;20017;-43
2022/08/20 10:00:07;;;;;;;0.82;0.40;;;23.80;59.80;;;;;;5027106;28;20108;-43
2022/08/20 10:02:33;;;;;;;0.68;0.40;;;23.80;59.80;;;;;;5027379;28;20025;-43
2022/08/20 10:04:59;;;;;;;1.10;0.35;;;23.80;59.80;;;;;;5045234;28;20040;-44
2022/08/20 10:07:24;;;;;;;0.57;0.40;;;23.80;59.70;;;;;;5046722;28;20021;-43
2022/08/20 10:09:50;;;;;;;0.57;0.30;;;23.80;59.70;;;;;;5045254;28;20037;-43
2022/08/20 10:12:16;;;;;;;0.63;0.40;;;23.80;59.70;;;;;;5047899;28;20538;-43
2022/08/20 10:14:41;;;;;;;0.35;0.30;;;23.90;59.70;;;;;;5045418;28;20021;-44
2022/08/20 10:17:07;;;;;;;0.40;0.30;;;23.80;59.70;;;;;;5045472;28;20030;-43
2022/08/20 10:19:33;;;;;;;0.98;0.40;;;23.80;59.60;;;;;;5046103;28;20096;-44
2022/08/20 10:21:59;;;;;;;0.35;0.30;;;23.80;59.60;;;;;;5044368;28;20025;-44
2022/08/20 10:24:24;;;;;;;0.70;0.57;;;23.80;59.60;;;;;;5045083;28;20040;-43
2022/08/20 10:26:50;;;;;;;0.50;0.50;;;23.80;59.50;;;;;;5045031;28;20091;-44
2022/08/20 10:29:16;;;;;;;0.70;0.40;;;23.90;59.60;;;;;;5027711;28;20022;-44
2022/08/20 10:31:42;;;;;;;0.45;0.30;;;23.90;59.60;;;;;;5046118;28;22076;-43
2022/08/20 10:34:07;;;;;;;0.43;0.35;;;23.90;59.40;;;;;;5043409;28;20036;-43
2022/08/20 10:36:33;;;;;;;0.32;0.30;;;23.90;59.30;;;;;;5045265;28;20526;-43
2022/08/20 10:38:58;;;;;;;0.65;0.45;;;23.90;59.30;;;;;;5045171;28;20041;-44
2022/08/20 10:41:24;;;;;;;0.98;0.43;;;23.90;59.20;;;;;;5046125;28;20017;-43
2022/08/20 10:43:50;;;;;;;0.70;0.43;;;23.90;59.80;;;;;;5045879;28;20252;-44
2022/08/20 10:46:16;;;;;;;0.45;0.30;;;23.90;59.30;;;;;;5029046;28;20032;-45
2022/08/20 10:48:41;;;;;;;0.95;0.47;;;23.90;59.20;;;;;;5045717;28;20392;-44
2022/08/20 10:51:07;;;;;;;1.20;0.70;;;24.00;59.20;;;;;;5046290;28;20025;-43
2022/08/20 10:53:33;;;;;;;0.63;0.43;;;23.90;59.20;;;;;;5046318;28;20083;-44
2022/08/20 10:55:58;;;;;;;0.70;0.50;;;24.00;59.10;;;;;;5046554;28;20434;-43
2022/08/20 10:58:24;;;;;;;0.85;0.40;;;23.90;59.10;;;;;;5043332;28;20017;-47
2022/08/20 11:00:50;;;;;;;1.45;0.70;;;24.00;59.20;;;;;;5045218;28;20035;-43
2022/08/20 11:03:15;;;;;;;1.10;0.68;;;24.00;59.00;;;;;;5045735;28;20076;-44
2022/08/20 11:05:41;;;;;;;0.90;0.45;;;23.90;59.10;;;;;;5046674;28;20056;-43
2022/08/20 11:08:07;;;;;;;0.65;0.47;;;24.00;59.00;;;;;;5045705;28;20111;-43
2022/08/20 11:10:33;;;;;;;0.98;0.50;;;24.00;59.00;;;;;;5046434;28;20033;-43
2022/08/20 11:13:00;;;;;;;0.60;0.40;;;24.00;59.00;;;;;;5047412;28;20028;-43
2022/08/20 11:15:25;;;;;;;0.60;0.35;;;24.00;59.10;;;;;;5015582;28;20059;-43
2022/08/20 11:17:51;;;;;;;0.47;0.47;;;24.00;59.00;;;;;;5047100;28;20029;-43
2022/08/20 11:20:18;;;;;;;0.70;0.32;;;24.00;58.90;;;;;;5048921;28;20028;-43
2022/08/20 11:22:44;;;;;;;0.70;0.40;;;24.00;58.90;;;;;;5049632;28;20396;-43
2022/08/20 11:25:09;;;;;;;0.50;0.40;;;24.00;59.00;;;;;;5047863;28;20025;-43
2022/08/20 11:27:37;;;;;;;0.40;0.30;;;24.00;59.00;;;;;;5049169;28;20039;-44
2022/08/20 11:30:04;;;;;;;0.63;0.50;;;24.00;59.00;;;;;;5047808;28;20033;-43
2022/08/20 11:32:29;;;;;;;0.47;0.40;;;24.00;59.10;;;;;;5049696;28;20037;-43
2022/08/20 11:34:55;;;;;;;0.95;0.60;;;24.00;59.10;;;;;;5048153;28;20400;-43
2022/08/20 11:37:21;;;;;;;0.68;0.40;;;24.00;59.20;;;;;;5046516;28;20045;-43
2022/08/20 11:39:47;;;;;;;0.38;0.30;;;24.10;59.20;;;;;;5047191;28;20045;-44
2022/08/20 11:42:12;;;;;;;0.70;0.30;;;24.10;59.30;;;;;;5046150;28;20024;-43
2022/08/20 11:44:38;;;;;;;0.40;0.22;;;24.00;59.30;;;;;;5048235;28;20025;-43
2022/08/20 11:47:04;;;;;;;0.77;0.50;;;24.10;59.30;;;;;;5047137;28;20118;-43
2022/08/20 11:49:31;;;;;;;0.80;0.50;;;24.10;59.30;;;;;;5049200;28;20017;-43
2022/08/20 11:51:56;;;;;;;0.40;0.22;;;24.10;59.30;;;;;;5045460;28;20037;-44
2022/08/20 11:54:22;;;;;;;0.45;0.43;;;24.10;59.30;;;;;;5048977;28;20033;-43
2022/08/20 11:56:48;;;;;;;0.60;0.30;;;24.10;59.20;;;;;;5046397;28;20091;-43
2022/08/20 11:59:14;;;;;;;0.75;0.50;;;24.10;59.30;;;;;;5049114;28;20125;-43
2022/08/20 12:01:39;;;;;;;0.88;0.40;;;24.20;59.80;;;;;;5046890;28;20103;-43
2022/08/20 12:04:05;;;;;;;1.30;0.40;;;24.20;59.00;;;;;;5047266;28;20024;-43
2022/08/20 12:06:32;;;;;;;1.13;0.40;;;24.20;59.00;;;;;;5047636;28;20446;-44
2022/08/20 12:08:58;;;;;;;0.60;0.40;;;24.20;59.10;;;;;;5045441;28;20512;-43
2022/08/20 12:11:23;;;;;;;0.47;0.38;;;24.20;59.10;;;;;;5046606;28;20064;-44
2022/08/20 12:13:49;;;;;;;0.47;0.30;;;24.20;59.10;;;;;;5041845;28;20408;-43
2022/08/20 12:16:18;;;;;;;0.47;0.40;;;24.20;59.10;;;;;;5046939;28;20027;-43
2022/08/20 12:18:44;;;;;;;0.40;0.38;;;24.20;59.00;;;;;;5048128;28;20472;-43
2022/08/20 12:21:09;;;;;;;0.60;0.35;;;24.20;59.00;;;;;;5046890;28;20036;-43
2022/08/20 12:23:35;;;;;;;0.47;0.22;;;24.20;58.90;;;;;;5047297;28;20025;-43
2022/08/20 12:26:02;;;;;;;0.73;0.30;;;24.20;58.90;;;;;;5046880;28;20029;-43
2022/08/20 12:28:29;;;;;;;0.82;0.35;;;24.20;59.00;;;;;;5044390;28;20032;-43
2022/08/20 12:30:54;;;;;;;1.05;0.47;;;24.20;58.90;;;;;;5046041;28;20021;-39
2022/08/20 12:33:20;;;;;;;0.47;0.25;;;24.20;59.00;;;;;;5047079;28;20062;-40
2022/08/20 12:35:45;;;;;;;0.35;0.30;;;24.20;59.00;;;;;;5047943;28;20047;-40
2022/08/20 12:38:11;;;;;;;0.30;0.30;;;24.20;58.90;;;;;;5045015;28;20029;-40
2022/08/20 12:40:37;;;;;;;0.40;0.30;;;24.20;58.80;;;;;;5030666;28;20502;-40
2022/08/20 12:43:02;;;;;;;0.40;0.35;;;24.30;58.90;;;;;;5045186;28;20037;-40
2022/08/20 12:45:28;;;;;;;1.25;0.50;;;24.30;58.70;;;;;;5046683;28;20036;-40
2022/08/20 12:48:04;;;;;;;0.70;0.40;;;24.30;58.70;;;;;;5047539;28;20466;-41
2022/08/20 12:50:29;;;;;;;0.70;0.32;;;24.30;58.70;;;;;;5044364;28;20020;-40